Allakaket, Alaska
Current Conditions -  °F | °C
As of 2:53 PM on Thursday 27 Nov 2014 (Local Time) from PABT Reporting Station
Few Clouds Few Clouds  
Wind Chill: -24°   Ceiling: Unl
Heat Index: -24°   Visibility: 10mi
Dew Point: -27°   Wind: 0mph
Humidity: 78%   Direction: NA
Pressure: 30.38"   Gusts: NA
Location:  66.57°N, 152.65°W
Report Text: PABT 272353Z 00000KT 10SM FEW170 M24/M27 A3038 RMK AO2 SLP318 4/006 T12391267 11233 21250 56018
Loading
Personal Weather Stations






























Interactive Weather Map New forecast layout! Learn more

10-Day Weather Forecast

Advertisements
Track Severe Weather on mobile